Time;durP1;ratioP1;P1;durP2;ratioP2;P2;SDS_P1;SDS_P2;PMS_P1;PMS_P2;Temp;Humidity;BMP_temperature;BMP_pressure;BME280_temperature;BME280_humidity;BME280_pressure;Samples;Min_cycle;Max_cycle;Signal;HPM_P1;HPM_P2
2022/01/11 00:01:03;;;;;;;6.28;2.30;;;;;;;;;;5051602;28;20469;-70
2022/01/11 00:03:30;;;;;;;3.50;1.88;;;;;;;;;;5051510;28;20021;-74
2022/01/11 00:06:01;;;;;;;2.33;1.50;;;;;;;;;;5052334;28;20044;-68
2022/01/11 00:08:32;;;;;;;4.80;1.80;;;;;;;;;;5045721;28;20030;-67
2022/01/11 00:11:05;;;;;;;3.22;1.30;;;;;;;;;;5033362;28;20045;-69
2022/01/11 00:13:39;;;;;;;2.45;1.73;;;;;;;;;;5031603;28;20503;-75
2022/01/11 00:16:07;;;;;;;1.42;0.80;;;;;;;;;;5044318;28;20057;-67
2022/01/11 00:18:34;;;;;;;2.30;0.77;;;;;;;;;;5036824;28;20495;-71
2022/01/11 00:21:00;;;;;;;0.70;0.70;;;;;;;;;;5048037;28;20371;-71
2022/01/11 00:25:53;;;;;;;2.40;0.90;;;;;;;;;;5030861;28;20030;-70
2022/01/11 00:28:21;;;;;;;2.83;1.45;;;;;;;;;;5031251;28;20353;-70
2022/01/11 00:31:03;;;;;;;4.22;1.63;;;;;;;;;;5047748;28;20107;-71
2022/01/11 00:33:43;;;;;;;3.58;1.80;;;;;;;;;;5044917;28;20384;-66
2022/01/11 00:36:11;;;;;;;3.53;1.30;;;;;;;;;;5050552;28;20105;-67
2022/01/11 00:38:38;;;;;;;4.00;1.60;;;;;;;;;;5032680;28;20469;-68
2022/01/11 00:41:10;;;;;;;4.15;1.60;;;;;;;;;;5031155;28;20041;-68
2022/01/11 00:43:39;;;;;;;3.20;1.27;;;;;;;;;;5046714;28;20033;-67
2022/01/11 00:46:06;;;;;;;2.10;1.25;;;;;;;;;;5042389;28;20526;-65
2022/01/11 00:48:32;;;;;;;1.98;1.10;;;;;;;;;;5046286;28;20037;-67
2022/01/11 00:51:00;;;;;;;2.90;1.42;;;;;;;;;;5035162;28;20071;-67
2022/01/11 00:53:26;;;;;;;2.40;1.23;;;;;;;;;;5030329;28;20068;-68
2022/01/11 00:55:52;;;;;;;2.53;0.85;;;;;;;;;;5033908;28;20045;-65
2022/01/11 00:58:19;;;;;;;2.40;1.40;;;;;;;;;;5043204;28;20033;-67
2022/01/11 01:00:45;;;;;;;4.30;1.60;;;;;;;;;;5039480;28;20109;-68
2022/01/11 01:03:11;;;;;;;5.07;1.80;;;;;;;;;;5049382;28;20082;-66
2022/01/11 01:05:37;;;;;;;1.48;1.00;;;;;;;;;;5035772;28;20033;-68
2022/01/11 01:08:05;;;;;;;3.75;1.13;;;;;;;;;;5029398;28;20056;-67
2022/01/11 01:10:40;;;;;;;3.97;1.70;;;;;;;;;;5013694;28;20025;-69
2022/01/11 01:13:13;;;;;;;4.63;1.40;;;;;;;;;;5022968;28;20132;-68
2022/01/11 01:15:48;;;;;;;3.92;2.40;;;;;;;;;;5050929;28;20031;-66
2022/01/11 01:18:26;;;;;;;5.82;3.45;;;;;;;;;;5032707;28;20041;-66
2022/01/11 01:20:53;;;;;;;4.93;2.20;;;;;;;;;;5031433;28;20035;-66
2022/01/11 01:23:20;;;;;;;6.10;2.95;;;;;;;;;;5039806;28;20025;-67
2022/01/11 01:25:48;;;;;;;5.90;2.90;;;;;;;;;;5031929;28;20036;-67
2022/01/11 01:28:15;;;;;;;3.70;1.80;;;;;;;;;;5030630;28;20503;-67
2022/01/11 01:30:41;;;;;;;2.78;1.20;;;;;;;;;;5030234;28;20132;-67
2022/01/11 01:33:07;;;;;;;1.70;1.10;;;;;;;;;;5031966;28;20433;-68
2022/01/11 01:35:42;;;;;;;3.40;1.50;;;;;;;;;;5030974;28;20065;-67
2022/01/11 01:38:09;;;;;;;1.67;1.08;;;;;;;;;;5029882;28;20630;-68
2022/01/11 01:40:41;;;;;;;1.70;1.00;;;;;;;;;;5047338;28;20056;-67
2022/01/11 01:43:10;;;;;;;1.42;1.15;;;;;;;;;;5049186;28;20053;-67
2022/01/11 01:45:37;;;;;;;3.42;1.20;;;;;;;;;;5049479;28;20400;-66
2022/01/11 01:48:04;;;;;;;3.58;1.30;;;;;;;;;;5040722;28;20030;-67
2022/01/11 01:50:30;;;;;;;3.80;1.70;;;;;;;;;;5048318;28;20036;-68
2022/01/11 01:53:00;;;;;;;4.78;2.10;;;;;;;;;;5050313;28;20039;-67
2022/01/11 01:55:26;;;;;;;4.72;2.40;;;;;;;;;;5050154;28;20071;-67
2022/01/11 01:57:52;;;;;;;4.00;1.63;;;;;;;;;;5050803;28;20049;-66
2022/01/11 02:00:20;;;;;;;6.38;1.80;;;;;;;;;;5050132;28;20449;-66
2022/01/11 02:02:46;;;;;;;2.65;1.00;;;;;;;;;;5049742;28;20052;-66
2022/01/11 02:05:12;;;;;;;3.63;0.90;;;;;;;;;;5039001;28;20140;-67
2022/01/11 02:07:38;;;;;;;3.38;0.80;;;;;;;;;;5042188;28;20074;-66
2022/01/11 02:10:06;;;;;;;1.30;0.57;;;;;;;;;;5049487;28;20025;-66
2022/01/11 02:12:32;;;;;;;2.95;1.00;;;;;;;;;;5049198;28;20040;-66
2022/01/11 02:15:02;;;;;;;1.60;0.70;;;;;;;;;;5049908;28;20029;-66
2022/01/11 02:17:29;;;;;;;1.45;0.52;;;;;;;;;;5043941;28;20390;-66
2022/01/11 02:19:56;;;;;;;1.20;0.57;;;;;;;;;;5049397;28;20021;-67
2022/01/11 02:22:24;;;;;;;1.65;0.90;;;;;;;;;;5047626;28;20407;-67
2022/01/11 02:24:51;;;;;;;1.73;0.80;;;;;;;;;;5049612;28;20052;-66
2022/01/11 02:27:17;;;;;;;2.78;0.65;;;;;;;;;;5048000;28;20059;-65
2022/01/11 02:29:43;;;;;;;1.52;0.70;;;;;;;;;;5049707;28;20041;-67
2022/01/11 02:32:10;;;;;;;2.30;0.75;;;;;;;;;;5049526;28;20124;-66
2022/01/11 02:34:37;;;;;;;0.52;0.40;;;;;;;;;;5048065;28;20530;-66
2022/01/11 02:37:15;;;;;;;3.55;0.60;;;;;;;;;;5035256;28;20536;-67
2022/01/11 02:39:49;;;;;;;1.00;0.43;;;;;;;;;;5031757;28;20037;-66
2022/01/11 02:42:29;;;;;;;2.17;0.30;;;;;;;;;;5049451;28;20029;-66
2022/01/11 02:44:55;;;;;;;0.38;0.38;;;;;;;;;;5048984;28;20471;-67
2022/01/11 02:47:22;;;;;;;0.50;0.40;;;;;;;;;;5048776;28;20056;-67
2022/01/11 02:49:52;;;;;;;1.05;0.50;;;;;;;;;;5048720;28;20500;-66
2022/01/11 02:52:27;;;;;;;0.70;0.25;;;;;;;;;;5032910;28;20099;-66
2022/01/11 02:54:58;;;;;;;0.40;0.40;;;;;;;;;;5048047;28;20029;-67
2022/01/11 02:57:25;;;;;;;0.60;0.45;;;;;;;;;;5049655;28;20116;-65
2022/01/11 02:59:58;;;;;;;;;;;;;;;;;;5052593;28;20033;-66
2022/01/11 03:02:24;;;;;;;0.45;0.30;;;;;;;;;;5046950;28;19983;-67
2022/01/11 03:04:52;;;;;;;0.50;0.40;;;;;;;;;;5033555;28;20427;-67
2022/01/11 03:07:22;;;;;;;1.92;0.50;;;;;;;;;;5037161;28;20044;-67
2022/01/11 03:10:14;;;;;;;0.50;0.40;;;;;;;;;;5052520;28;20468;-67
2022/01/11 03:12:48;;;;;;;0.55;0.50;;;;;;;;;;5051992;28;20036;-66
2022/01/11 03:15:15;;;;;;;0.68;0.60;;;;;;;;;;5052113;28;20484;-67
2022/01/11 03:17:45;;;;;;;2.30;0.85;;;;;;;;;;5047648;28;20045;-66
2022/01/11 03:20:11;;;;;;;3.60;1.25;;;;;;;;;;5036198;28;20562;-66
2022/01/11 03:22:38;;;;;;;2.45;1.20;;;;;;;;;;5051411;28;20032;-66
2022/01/11 03:25:06;;;;;;;2.42;1.30;;;;;;;;;;5050810;28;20427;-67
2022/01/11 03:27:34;;;;;;;3.70;1.48;;;;;;;;;;5044366;28;20025;-66
2022/01/11 03:30:03;;;;;;;2.13;0.90;;;;;;;;;;5043085;28;20056;-67
2022/01/11 03:32:30;;;;;;;2.30;0.70;;;;;;;;;;5035688;28;20088;-67
2022/01/11 03:34:56;;;;;;;0.80;0.60;;;;;;;;;;5040426;28;20114;-67
2022/01/11 03:37:23;;;;;;;5.45;1.00;;;;;;;;;;5039462;28;20025;-66
2022/01/11 03:39:49;;;;;;;1.42;0.80;;;;;;;;;;5030817;28;20037;-66
2022/01/11 03:42:16;;;;;;;1.77;0.90;;;;;;;;;;5033962;28;20025;-66
2022/01/11 03:44:42;;;;;;;1.42;0.80;;;;;;;;;;5051945;28;20037;-66
2022/01/11 03:47:08;;;;;;;2.20;1.02;;;;;;;;;;5052250;28;20395;-66
2022/01/11 03:49:34;;;;;;;3.50;1.27;;;;;;;;;;5051735;28;20083;-66
2022/01/11 03:52:00;;;;;;;3.28;1.48;;;;;;;;;;5051961;28;20491;-65
2022/01/11 03:54:29;;;;;;;2.20;1.17;;;;;;;;;;5051557;28;20041;-66
2022/01/11 03:57:13;;;;;;;2.83;1.70;;;;;;;;;;5030270;28;20361;-66
2022/01/11 03:59:44;;;;;;;2.88;1.67;;;;;;;;;;5031005;28;20030;-66
2022/01/11 04:02:10;;;;;;;4.50;2.25;;;;;;;;;;5030143;28;20037;-65
2022/01/11 04:04:36;;;;;;;3.30;1.55;;;;;;;;;;5031905;28;20021;-67
2022/01/11 04:07:03;;;;;;;1.92;1.30;;;;;;;;;;5044088;28;20369;-67
2022/01/11 04:09:29;;;;;;;4.30;1.42;;;;;;;;;;5050063;28;20047;-67
2022/01/11 04:11:55;;;;;;;10.63;1.23;;;;;;;;;;5047706;28;20030;-66
2022/01/11 04:14:25;;;;;;;2.15;0.90;;;;;;;;;;5039179;28;20029;-65
2022/01/11 04:16:52;;;;;;;3.40;1.10;;;;;;;;;;5054614;28;20108;-66
2022/01/11 04:19:20;;;;;;;3.53;1.15;;;;;;;;;;5052472;28;20033;-65
2022/01/11 04:21:47;;;;;;;1.98;0.75;;;;;;;;;;5050431;28;20091;-66
2022/01/11 04:24:13;;;;;;;2.13;1.08;;;;;;;;;;5036350;28;20030;-64
2022/01/11 04:26:40;;;;;;;3.70;1.20;;;;;;;;;;5048642;28;20287;-65
2022/01/11 04:29:06;;;;;;;2.60;1.10;;;;;;;;;;5049161;28;20025;-68
2022/01/11 04:31:32;;;;;;;3.92;1.40;;;;;;;;;;5032021;28;20129;-67
2022/01/11 04:33:59;;;;;;;3.80;1.10;;;;;;;;;;5049578;28;20033;-67
2022/01/11 04:36:25;;;;;;;4.35;1.50;;;;;;;;;;5050790;28;20040;-66
2022/01/11 04:38:51;;;;;;;5.75;2.28;;;;;;;;;;5050803;28;20500;-66
2022/01/11 04:41:17;;;;;;;5.00;2.38;;;;;;;;;;5050590;28;20036;-66
2022/01/11 04:43:48;;;;;;;5.07;2.45;;;;;;;;;;5050836;28;20040;-66
2022/01/11 04:46:18;;;;;;;3.88;1.90;;;;;;;;;;5049437;28;20041;-66
2022/01/11 04:48:46;;;;;;;3.67;1.30;;;;;;;;;;5049448;28;20276;-66
2022/01/11 04:51:12;;;;;;;4.03;1.55;;;;;;;;;;5043192;28;20060;-66
2022/01/11 04:53:38;;;;;;;4.45;1.20;;;;;;;;;;5041938;28;20628;-70
2022/01/11 04:56:05;;;;;;;4.22;1.30;;;;;;;;;;5045822;28;20087;-66
2022/01/11 04:58:31;;;;;;;3.83;1.10;;;;;;;;;;5037047;28;20166;-69
2022/01/11 05:00:57;;;;;;;1.60;0.75;;;;;;;;;;5042593;28;20028;-69
2022/01/11 05:03:26;;;;;;;3.55;1.10;;;;;;;;;;5033211;28;20431;-68
2022/01/11 05:05:59;;;;;;;4.07;1.40;;;;;;;;;;5037245;28;20037;-67
2022/01/11 05:08:25;;;;;;;2.67;1.10;;;;;;;;;;5035896;28;20140;-67
2022/01/11 05:10:52;;;;;;;2.00;0.93;;;;;;;;;;5045454;28;20098;-67
2022/01/11 05:13:19;;;;;;;3.72;1.50;;;;;;;;;;5039863;28;20111;-68
2022/01/11 05:15:46;;;;;;;5.43;1.70;;;;;;;;;;5034577;28;20045;-72
2022/01/11 05:18:13;;;;;;;2.33;1.30;;;;;;;;;;5043366;28;20496;-71
2022/01/11 05:20:40;;;;;;;4.60;1.67;;;;;;;;;;5041454;28;20029;-72
2022/01/11 05:23:09;;;;;;;4.28;1.73;;;;;;;;;;5048058;28;20177;-73
2022/01/11 05:25:35;;;;;;;4.93;2.30;;;;;;;;;;5049168;28;20369;-71
2022/01/11 05:28:01;;;;;;;4.25;1.88;;;;;;;;;;5049043;28;20474;-72
2022/01/11 05:30:29;;;;;;;4.55;1.98;;;;;;;;;;5042884;28;20041;-72
2022/01/11 05:32:55;;;;;;;4.25;1.90;;;;;;;;;;5028930;28;20147;-73
2022/01/11 05:35:23;;;;;;;4.53;2.15;;;;;;;;;;5034692;28;20033;-72
2022/01/11 05:37:50;;;;;;;3.35;1.60;;;;;;;;;;5031085;28;20048;-71
2022/01/11 05:40:17;;;;;;;4.28;2.20;;;;;;;;;;5054393;28;20029;-73
2022/01/11 05:42:45;;;;;;;6.25;2.00;;;;;;;;;;5027863;28;20156;-73
2022/01/11 05:45:13;;;;;;;5.97;2.00;;;;;;;;;;5035003;28;20025;-71
2022/01/11 05:47:40;;;;;;;4.88;1.50;;;;;;;;;;5041781;28;20486;-74
2022/01/11 05:50:10;;;;;;;5.53;1.85;;;;;;;;;;5046327;28;20055;-70
2022/01/11 05:52:38;;;;;;;3.92;1.92;;;;;;;;;;5047621;28;20091;-72
2022/01/11 05:55:06;;;;;;;3.97;1.77;;;;;;;;;;5050183;28;20020;-76
2022/01/11 05:57:32;;;;;;;5.03;1.95;;;;;;;;;;5049728;28;20029;-70
2022/01/11 05:59:57;;;;;;;3.78;1.70;;;;;;;;;;5031505;28;20030;-74
2022/01/11 06:02:23;;;;;;;2.72;1.30;;;;;;;;;;5034685;28;20021;-74
2022/01/11 06:04:50;;;;;;;3.38;1.92;;;;;;;;;;5049389;28;20028;-77
2022/01/11 06:07:16;;;;;;;4.43;1.50;;;;;;;;;;5036616;28;20040;-77
2022/01/11 06:09:42;;;;;;;3.35;1.75;;;;;;;;;;5045907;28;20393;-75
2022/01/11 06:12:08;;;;;;;5.28;1.98;;;;;;;;;;5033440;28;20037;-76
2022/01/11 06:14:35;;;;;;;4.60;1.50;;;;;;;;;;5049738;28;20029;-77
2022/01/11 06:17:01;;;;;;;5.20;1.83;;;;;;;;;;5048742;28;20029;-77
2022/01/11 06:19:27;;;;;;;4.70;2.20;;;;;;;;;;5050499;28;20029;-75
2022/01/11 06:22:01;;;;;;;4.90;1.90;;;;;;;;;;5049167;28;20037;-75
2022/01/11 06:24:26;;;;;;;6.28;1.70;;;;;;;;;;5030970;28;20041;-75
2022/01/11 06:26:52;;;;;;;5.57;2.03;;;;;;;;;;5028370;28;20049;-76
2022/01/11 06:29:18;;;;;;;7.78;1.70;;;;;;;;;;5029196;28;20061;-75
2022/01/11 06:31:44;;;;;;;7.68;2.10;;;;;;;;;;5044474;28;20077;-73
2022/01/11 06:34:10;;;;;;;9.50;2.75;;;;;;;;;;5035543;28;20041;-76
2022/01/11 06:36:36;;;;;;;9.55;2.85;;;;;;;;;;5044109;28;20033;-71
2022/01/11 06:39:03;;;;;;;4.35;2.22;;;;;;;;;;5045421;28;20129;-73
2022/01/11 06:41:32;;;;;;;7.97;2.20;;;;;;;;;;5033812;28;20029;-72
2022/01/11 06:44:01;;;;;;;9.32;3.33;;;;;;;;;;5032871;28;20036;-72
2022/01/11 06:46:28;;;;;;;10.65;2.60;;;;;;;;;;5034802;28;20385;-73
2022/01/11 06:48:59;;;;;;;7.30;2.30;;;;;;;;;;5045573;28;20127;-77
2022/01/11 06:51:25;;;;;;;7.97;2.30;;;;;;;;;;5046377;28;20033;-75
2022/01/11 06:53:51;;;;;;;5.95;1.90;;;;;;;;;;5052949;28;20029;-77
2022/01/11 06:56:20;;;;;;;6.03;1.80;;;;;;;;;;5038103;28;20095;-75
2022/01/11 06:58:49;;;;;;;7.40;2.17;;;;;;;;;;5053154;28;20029;-77
2022/01/11 07:01:15;;;;;;;5.35;2.42;;;;;;;;;;5052528;28;20154;-74
2022/01/11 07:03:42;;;;;;;7.50;2.85;;;;;;;;;;5053681;28;20504;-73
2022/01/11 07:06:21;;;;;;;4.35;2.08;;;;;;;;;;5042534;28;20029;-73
2022/01/11 07:08:48;;;;;;;10.30;3.53;;;;;;;;;;5044795;28;20041;-74
2022/01/11 07:11:14;;;;;;;9.02;2.97;;;;;;;;;;5046291;28;20028;-72
2022/01/11 07:13:40;;;;;;;10.38;3.10;;;;;;;;;;5053175;28;20529;-73
2022/01/11 07:16:06;;;;;;;13.23;3.33;;;;;;;;;;5052430;28;20040;-73
2022/01/11 07:18:33;;;;;;;10.05;2.65;;;;;;;;;;5049266;28;20036;-73
2022/01/11 07:21:02;;;;;;;7.70;2.92;;;;;;;;;;5042532;28;20438;-73
2022/01/11 07:23:30;;;;;;;7.85;3.10;;;;;;;;;;5050580;28;20586;-74
2022/01/11 07:25:56;;;;;;;8.73;2.28;;;;;;;;;;5052276;28;20127;-72
2022/01/11 07:28:24;;;;;;;8.82;3.70;;;;;;;;;;5049747;28;20088;-72
2022/01/11 07:30:51;;;;;;;10.43;3.92;;;;;;;;;;5039828;28;20043;-70
2022/01/11 07:33:18;;;;;;;9.45;4.20;;;;;;;;;;5045247;28;20041;-71
2022/01/11 07:35:50;;;;;;;4.43;2.05;;;;;;;;;;5042550;28;20032;-73
2022/01/11 07:38:16;;;;;;;6.03;2.72;;;;;;;;;;5037837;28;20060;-70
2022/01/11 07:40:42;;;;;;;7.72;2.95;;;;;;;;;;5047346;28;20178;-73
2022/01/11 07:43:26;;;;;;;8.25;2.30;;;;;;;;;;5031917;28;20396;-73
2022/01/11 07:45:54;;;;;;;7.75;2.63;;;;;;;;;;5014034;28;20369;-73
2022/01/11 07:48:24;;;;;;;8.43;2.10;;;;;;;;;;5034827;28;20026;-74
2022/01/11 07:50:57;;;;;;;7.22;2.60;;;;;;;;;;5053348;28;20427;-70
2022/01/11 07:53:23;;;;;;;6.05;2.05;;;;;;;;;;5051609;28;20037;-73
2022/01/11 07:55:54;;;;;;;6.43;2.20;;;;;;;;;;5051288;28;20079;-74
2022/01/11 07:58:21;;;;;;;4.07;1.67;;;;;;;;;;5044261;28;20104;-73
2022/01/11 08:00:48;;;;;;;5.25;2.13;;;;;;;;;;5051120;28;20086;-70
2022/01/11 08:03:23;;;;;;;3.60;1.55;;;;;;;;;;5051081;28;20037;-70
2022/01/11 08:05:59;;;;;;;8.52;2.78;;;;;;;;;;5049601;28;20037;-75
2022/01/11 08:08:27;;;;;;;6.43;2.25;;;;;;;;;;5050579;28;20029;-77
2022/01/11 08:10:56;;;;;;;4.45;1.80;;;;;;;;;;5046049;28;20032;-73
2022/01/11 08:13:23;;;;;;;4.32;1.23;;;;;;;;;;5050517;28;20032;-75
2022/01/11 08:15:49;;;;;;;3.67;1.83;;;;;;;;;;5030577;28;20036;-73
2022/01/11 08:18:15;;;;;;;4.82;2.00;;;;;;;;;;5030897;28;20498;-71
2022/01/11 08:20:44;;;;;;;2.97;1.20;;;;;;;;;;5040745;28;20406;-70
2022/01/11 08:23:11;;;;;;;3.15;1.30;;;;;;;;;;5047613;28;20029;-70
2022/01/11 08:25:37;;;;;;;3.05;1.42;;;;;;;;;;5050372;28;20111;-72
2022/01/11 08:28:04;;;;;;;3.35;1.38;;;;;;;;;;5034489;28;20068;-72
2022/01/11 08:30:31;;;;;;;2.03;1.08;;;;;;;;;;5045860;28;20129;-70
2022/01/11 08:33:06;;;;;;;1.50;1.20;;;;;;;;;;5040640;28;20037;-71
2022/01/11 08:35:33;;;;;;;3.03;1.25;;;;;;;;;;5050884;28;20040;-70
2022/01/11 08:37:59;;;;;;;2.33;1.33;;;;;;;;;;5051186;28;20379;-70
2022/01/11 08:40:26;;;;;;;2.47;1.30;;;;;;;;;;5049567;28;20035;-71
2022/01/11 08:42:59;;;;;;;3.22;1.42;;;;;;;;;;5051377;28;20033;-71
2022/01/11 08:45:25;;;;;;;2.13;1.13;;;;;;;;;;5050972;28;20396;-71
2022/01/11 08:48:00;;;;;;;2.88;1.40;;;;;;;;;;5049402;28;20033;-71
2022/01/11 08:50:26;;;;;;;3.45;1.20;;;;;;;;;;5037522;28;20048;-72
2022/01/11 08:52:53;;;;;;;3.03;1.00;;;;;;;;;;5048845;28;20499;-69
2022/01/11 08:55:22;;;;;;;3.58;1.58;;;;;;;;;;5052205;28;20037;-70
2022/01/11 08:57:49;;;;;;;3.53;1.38;;;;;;;;;;5049433;28;20427;-71
2022/01/11 09:00:18;;;;;;;5.65;1.45;;;;;;;;;;5049235;28;20126;-70
2022/01/11 09:02:51;;;;;;;3.40;1.60;;;;;;;;;;5040157;28;20040;-70
2022/01/11 09:05:18;;;;;;;3.10;1.58;;;;;;;;;;5038515;28;20029;-70
2022/01/11 09:07:44;;;;;;;2.58;1.20;;;;;;;;;;5045827;28;20411;-75
2022/01/11 09:10:11;;;;;;;2.95;1.77;;;;;;;;;;5065845;28;20392;-70
2022/01/11 09:12:38;;;;;;;3.08;1.52;;;;;;;;;;5048946;28;20422;-72
2022/01/11 09:15:06;;;;;;;2.13;1.63;;;;;;;;;;5050120;28;20044;-71
2022/01/11 09:17:34;;;;;;;2.20;1.20;;;;;;;;;;5049430;28;20055;-73
2022/01/11 09:20:01;;;;;;;2.42;1.40;;;;;;;;;;5050111;28;20033;-70
2022/01/11 09:22:28;;;;;;;2.40;1.55;;;;;;;;;;5049600;28;20033;-74
2022/01/11 09:24:56;;;;;;;1.92;1.20;;;;;;;;;;5049263;28;20181;-72
2022/01/11 09:27:25;;;;;;;1.52;1.00;;;;;;;;;;5043447;28;20029;-71
2022/01/11 09:29:52;;;;;;;2.20;1.20;;;;;;;;;;5030947;28;20037;-71
2022/01/11 09:32:20;;;;;;;2.38;1.17;;;;;;;;;;5030210;28;20433;-71
2022/01/11 09:34:48;;;;;;;1.88;1.17;;;;;;;;;;5031786;28;20381;-71
2022/01/11 09:37:23;;;;;;;2.40;1.00;;;;;;;;;;5050527;28;20037;-71
2022/01/11 09:39:49;;;;;;;1.55;1.10;;;;;;;;;;5049658;28;20063;-72
2022/01/11 09:42:18;;;;;;;2.40;1.30;;;;;;;;;;5050794;28;20033;-72
2022/01/11 09:44:46;;;;;;;3.83;0.95;;;;;;;;;;5050202;28;20036;-72
2022/01/11 09:47:13;;;;;;;4.50;1.50;;;;;;;;;;5033458;28;20057;-74
2022/01/11 09:49:43;;;;;;;3.20;1.70;;;;;;;;;;5044849;28;20123;-72
2022/01/11 09:52:10;;;;;;;2.85;1.77;;;;;;;;;;5049047;28;20037;-72
2022/01/11 09:54:38;;;;;;;4.25;2.22;;;;;;;;;;5029292;28;20076;-70
2022/01/11 09:57:09;;;;;;;4.75;2.45;;;;;;;;;;5030000;28;20052;-71
2022/01/11 09:59:36;;;;;;;3.08;1.48;;;;;;;;;;5041120;28;20040;-71
2022/01/11 10:02:22;;;;;;;6.60;2.33;;;;;;;;;;5046945;28;20480;-72
2022/01/11 10:05:08;;;;;;;4.55;1.70;;;;;;;;;;5039939;28;20026;-71
2022/01/11 10:07:40;;;;;;;4.60;1.85;;;;;;;;;;5030653;28;20658;-70
2022/01/11 10:10:22;;;;;;;3.75;2.13;;;;;;;;;;5034118;28;20037;-71
2022/01/11 10:12:53;;;;;;;3.08;1.58;;;;;;;;;;5037487;28;20029;-78
2022/01/11 10:15:35;;;;;;;3.13;1.50;;;;;;;;;;5054786;28;20123;-75
2022/01/11 10:18:33;;;;;;;3.80;1.95;;;;;;;;;;5054301;28;20379;-71
2022/01/11 10:21:36;;;;;;;6.18;2.50;;;;;;;;;;5054227;28;20032;-72
2022/01/11 10:24:27;;;;;;;7.30;2.15;;;;;;;;;;5036290;28;20037;-71
2022/01/11 10:26:57;;;;;;;7.75;1.90;;;;;;;;;;5032990;28;20084;-76
2022/01/11 10:29:26;;;;;;;3.40;1.92;;;;;;;;;;5033205;28;20487;-71
2022/01/11 10:31:55;;;;;;;3.92;2.10;;;;;;;;;;5041570;28;20493;-73
2022/01/11 10:34:28;;;;;;;3.95;1.67;;;;;;;;;;5052112;28;20029;-73
2022/01/11 10:36:54;;;;;;;3.33;1.90;;;;;;;;;;5040090;28;20439;-71
2022/01/11 10:39:29;;;;;;;4.10;1.40;;;;;;;;;;5049494;28;20087;-73
2022/01/11 10:41:57;;;;;;;3.00;1.55;;;;;;;;;;5055817;28;20037;-73
2022/01/11 10:44:47;;;;;;;2.63;1.60;;;;;;;;;;5050510;28;20033;-73
2022/01/11 10:47:22;;;;;;;2.47;1.50;;;;;;;;;;5035483;28;20484;-72
2022/01/11 10:49:50;;;;;;;1.73;1.20;;;;;;;;;;5032572;28;20040;-71
2022/01/11 10:52:28;;;;;;;5.32;1.52;;;;;;;;;;5032789;28;20484;-70
2022/01/11 10:55:15;;;;;;;7.40;2.75;;;;;;;;;;5033153;28;20041;-71
2022/01/11 10:57:43;;;;;;;4.75;2.67;;;;;;;;;;5045568;28;20040;-70
2022/01/11 11:00:25;;;;;;;3.25;1.70;;;;;;;;;;5043792;28;20102;-71
2022/01/11 11:02:59;;;;;;;2.53;1.50;;;;;;;;;;5053196;28;20040;-71
2022/01/11 11:05:34;;;;;;;2.17;1.40;;;;;;;;;;5053225;28;20032;-72
2022/01/11 11:08:24;;;;;;;1.88;1.10;;;;;;;;;;5052680;28;20033;-71
2022/01/11 11:11:20;;;;;;;3.65;1.75;;;;;;;;;;5053082;28;20041;-71
2022/01/11 11:13:59;;;;;;;2.40;1.40;;;;;;;;;;5053629;28;20099;-72
2022/01/11 11:16:29;;;;;;;2.70;1.48;;;;;;;;;;5052761;28;20044;-72
2022/01/11 11:19:01;;;;;;;2.90;1.40;;;;;;;;;;5052063;28;20037;-70
2022/01/11 11:22:00;;;;;;;2.40;1.60;;;;;;;;;;5053948;28;20044;-72
2022/01/11 11:24:25;;;;;;;3.65;1.88;;;;;;;;;;5053122;28;20079;-69
2022/01/11 11:26:51;;;;;;;4.00;2.00;;;;;;;;;;5051239;28;20409;-70
2022/01/11 11:29:19;;;;;;;1.73;1.35;;;;;;;;;;5053815;28;20415;-70
2022/01/11 11:31:46;;;;;;;2.65;1.67;;;;;;;;;;5043368;28;20041;-71
2022/01/11 11:34:12;;;;;;;2.83;1.80;;;;;;;;;;5033666;28;20041;-71
2022/01/11 11:36:40;;;;;;;3.15;1.70;;;;;;;;;;5033270;28;20391;-71
2022/01/11 11:39:13;;;;;;;3.95;1.33;;;;;;;;;;5034119;28;20029;-71
2022/01/11 11:41:40;;;;;;;;;;;;;;;;;;5050267;28;20076;-69
2022/01/11 11:44:26;;;;;;;2.40;1.48;;;;;;;;;;5036436;28;20012;-71
2022/01/11 11:47:00;;;;;;;3.58;1.60;;;;;;;;;;5043965;28;20117;-72
2022/01/11 11:49:45;;;;;;;2.22;1.20;;;;;;;;;;5043528;28;20476;-71
2022/01/11 11:52:17;;;;;;;3.08;1.52;;;;;;;;;;5053061;28;20037;-71
2022/01/11 11:54:56;;;;;;;3.40;1.60;;;;;;;;;;5052639;28;20033;-74
2022/01/11 11:57:25;;;;;;;2.25;1.20;;;;;;;;;;5051775;28;20060;-73
2022/01/11 11:59:58;;;;;;;2.00;1.30;;;;;;;;;;5033655;28;20096;-72
2022/01/11 12:02:31;;;;;;;2.13;1.58;;;;;;;;;;5032816;28;20029;-72
2022/01/11 12:04:57;;;;;;;2.33;1.35;;;;;;;;;;5047340;28;20418;-72
2022/01/11 12:07:49;;;;;;;2.75;1.90;;;;;;;;;;5053898;28;20033;-71
2022/01/11 12:10:26;;;;;;;2.95;1.92;;;;;;;;;;5052840;28;20507;-73
2022/01/11 12:12:55;;;;;;;1.90;1.30;;;;;;;;;;5048763;28;20028;-72
2022/01/11 12:15:34;;;;;;;2.40;1.35;;;;;;;;;;5034347;28;20056;-72
2022/01/11 12:18:00;;;;;;;1.38;1.10;;;;;;;;;;5039077;28;20032;-72
2022/01/11 12:20:49;;;;;;;1.55;1.10;;;;;;;;;;5053397;28;20021;-72
2022/01/11 12:23:41;;;;;;;2.20;1.50;;;;;;;;;;5051113;28;20048;-72
2022/01/11 12:26:20;;;;;;;1.38;1.08;;;;;;;;;;5050785;28;20114;-75
2022/01/11 12:29:10;;;;;;;2.13;1.40;;;;;;;;;;5045462;28;20235;-76
2022/01/11 12:31:38;;;;;;;2.03;1.20;;;;;;;;;;5029662;28;20052;-72
2022/01/11 12:34:10;;;;;;;2.30;1.63;;;;;;;;;;5039297;28;20368;-73
2022/01/11 12:37:03;;;;;;;2.05;1.20;;;;;;;;;;5041205;28;20035;-72
2022/01/11 12:39:31;;;;;;;2.17;1.52;;;;;;;;;;5032185;28;20054;-74
2022/01/11 12:41:58;;;;;;;2.97;1.60;;;;;;;;;;5032799;28;20041;-74
2022/01/11 12:47:02;;;;;;;1.67;1.27;;;;;;;;;;5043631;28;20159;-70
2022/01/11 12:49:29;;;;;;;1.53;1.20;;;;;;;;;;5043158;28;20076;-72
2022/01/11 12:52:08;;;;;;;2.35;1.38;;;;;;;;;;5049723;28;20025;-71
2022/01/11 12:54:49;;;;;;;2.38;1.40;;;;;;;;;;5052297;28;20048;-73
2022/01/11 12:57:28;;;;;;;2.20;1.20;;;;;;;;;;5050874;28;20029;-73
2022/01/11 12:59:57;;;;;;;2.42;1.45;;;;;;;;;;5052441;28;20043;-74
2022/01/11 13:02:28;;;;;;;2.30;1.50;;;;;;;;;;5050803;28;20017;-73
2022/01/11 13:05:02;;;;;;;3.53;1.70;;;;;;;;;;5052142;28;20056;-74
2022/01/11 13:07:29;;;;;;;2.28;1.63;;;;;;;;;;5052092;28;20111;-74
2022/01/11 13:10:14;;;;;;;1.98;1.25;;;;;;;;;;5035672;28;20034;-72
2022/01/11 13:12:44;;;;;;;2.70;1.20;;;;;;;;;;5044141;28;20026;-74
2022/01/11 13:15:14;;;;;;;3.15;1.40;;;;;;;;;;5031690;28;20484;-72
2022/01/11 13:18:13;;;;;;;2.45;1.38;;;;;;;;;;5051683;28;20423;-74
2022/01/11 13:20:45;;;;;;;1.45;1.10;;;;;;;;;;5051932;28;20044;-72
2022/01/11 13:23:28;;;;;;;1.65;1.10;;;;;;;;;;5052451;28;20491;-74
2022/01/11 13:25:58;;;;;;;3.15;1.58;;;;;;;;;;5051952;28;20079;-71
2022/01/11 13:28:49;;;;;;;2.33;1.45;;;;;;;;;;5051551;28;20033;-73
2022/01/11 13:31:18;;;;;;;5.53;1.13;;;;;;;;;;5036027;28;20418;-71
2022/01/11 13:33:48;;;;;;;1.98;1.20;;;;;;;;;;5051704;28;20060;-73
2022/01/11 13:36:20;;;;;;;5.78;1.80;;;;;;;;;;5050010;28;20025;-73
2022/01/11 13:38:49;;;;;;;2.55;1.08;;;;;;;;;;5049909;28;20029;-73
2022/01/11 13:41:16;;;;;;;4.05;1.40;;;;;;;;;;5036900;28;20053;-75
2022/01/11 13:43:45;;;;;;;2.25;1.40;;;;;;;;;;5041414;28;20126;-73
2022/01/11 13:46:17;;;;;;;1.95;1.30;;;;;;;;;;5043747;28;20396;-74
2022/01/11 13:48:45;;;;;;;1.23;0.88;;;;;;;;;;5051367;28;20025;-76
2022/01/11 13:51:11;;;;;;;3.50;1.40;;;;;;;;;;5051846;28;20161;-75
2022/01/11 13:53:38;;;;;;;3.28;1.40;;;;;;;;;;5050341;28;20033;-73
2022/01/11 13:56:04;;;;;;;4.78;1.85;;;;;;;;;;5052201;28;20128;-72
2022/01/11 13:58:31;;;;;;;2.72;1.30;;;;;;;;;;5041911;28;20116;-72
2022/01/11 14:00:58;;;;;;;10.52;1.90;;;;;;;;;;5031326;28;20026;-73
2022/01/11 14:03:25;;;;;;;2.38;1.13;;;;;;;;;;5030040;28;20155;-71
2022/01/11 14:05:50;;;;;;;2.33;1.63;;;;;;;;;;5030075;28;20478;-72
2022/01/11 14:08:28;;;;;;;1.30;1.00;;;;;;;;;;5046880;28;20056;-72
2022/01/11 14:11:05;;;;;;;2.47;1.10;;;;;;;;;;5050287;28;20044;-72
2022/01/11 14:13:31;;;;;;;2.35;0.80;;;;;;;;;;5037757;28;20033;-74
2022/01/11 14:15:57;;;;;;;2.53;1.20;;;;;;;;;;5041842;28;20056;-71
2022/01/11 14:18:26;;;;;;;3.20;1.27;;;;;;;;;;5044579;28;20029;-73
2022/01/11 14:21:08;;;;;;;3.80;1.40;;;;;;;;;;5050875;28;20078;-72
2022/01/11 14:23:35;;;;;;;1.95;1.00;;;;;;;;;;5051290;28;20384;-72
2022/01/11 14:26:02;;;;;;;5.55;2.70;;;;;;;;;;5040705;28;20035;-70
2022/01/11 14:28:32;;;;;;;2.97;1.50;;;;;;;;;;5045173;28;20041;-71
2022/01/11 14:31:18;;;;;;;4.13;1.50;;;;;;;;;;5048849;28;20484;-71
2022/01/11 14:33:45;;;;;;;3.80;1.67;;;;;;;;;;5039413;28;20484;-73
2022/01/11 14:36:16;;;;;;;1.20;0.80;;;;;;;;;;5038186;28;20398;-71
2022/01/11 14:38:48;;;;;;;3.17;1.10;;;;;;;;;;5030854;28;20042;-72
2022/01/11 14:41:25;;;;;;;2.40;1.35;;;;;;;;;;5030979;28;20526;-74
2022/01/11 14:44:00;;;;;;;1.80;1.10;;;;;;;;;;5033344;28;20041;-71
2022/01/11 14:46:27;;;;;;;1.85;1.33;;;;;;;;;;5051405;28;20033;-73
2022/01/11 14:49:01;;;;;;;4.03;2.10;;;;;;;;;;5051054;28;20120;-72
2022/01/11 14:51:27;;;;;;;2.47;1.48;;;;;;;;;;5051682;28;20047;-71
2022/01/11 14:53:56;;;;;;;2.90;1.98;;;;;;;;;;5051493;28;20112;-72
2022/01/11 14:56:29;;;;;;;1.98;1.13;;;;;;;;;;5038710;28;20095;-73
2022/01/11 14:59:02;;;;;;;4.57;1.43;;;;;;;;;;5042082;28;20034;-73
2022/01/11 15:01:32;;;;;;;3.60;1.50;;;;;;;;;;5034454;28;20061;-72
2022/01/11 15:04:05;;;;;;;2.30;1.45;;;;;;;;;;5054235;28;20170;-74
2022/01/11 15:06:34;;;;;;;2.35;1.42;;;;;;;;;;5054096;28;20045;-72